sensor_id;sensor_type;location;lat;lon;timestamp;pressure;altitude;pressure_sealevel;temperature;humidity
26719;BME280;14326;50.794;6.060;2022-09-12T00:01:47;99752.28;;;13.82;100.00
26719;BME280;14326;50.794;6.060;2022-09-12T00:04:13;99754.97;;;13.76;100.00
26719;BME280;14326;50.794;6.060;2022-09-12T00:06:41;99750.50;;;13.73;100.00
26719;BME280;14326;50.794;6.060;2022-09-12T00:09:09;99755.88;;;13.70;100.00
26719;BME280;14326;50.794;6.060;2022-09-12T00:11:39;99745.16;;;13.67;100.00
26719;BME280;14326;50.794;6.060;2022-09-12T00:14:08;99752.31;;;13.62;100.00
26719;BME280;14326;50.794;6.060;2022-09-12T00:16:35;99742.50;;;13.64;100.00
26719;BME280;14326;50.794;6.060;2022-09-12T00:19:04;99750.53;;;13.61;100.00
26719;BME280;14326;50.794;6.060;2022-09-12T00:21:31;99746.09;;;13.57;100.00
26719;BME280;14326;50.794;6.060;2022-09-12T00:23:58;99742.50;;;13.57;100.00
26719;BME280;14326;50.794;6.060;2022-09-12T00:26:25;99743.41;;;13.57;100.00
26719;BME280;14326;50.794;6.060;2022-09-12T00:28:53;99741.63;;;13.56;100.00
26719;BME280;14326;50.794;6.060;2022-09-12T00:31:22;99744.28;;;13.58;100.00
26719;BME280;14326;50.794;6.060;2022-09-12T00:33:50;99741.63;;;13.53;100.00
26719;BME280;14326;50.794;6.060;2022-09-12T00:36:18;99732.72;;;13.51;100.00
26719;BME280;14326;50.794;6.060;2022-09-12T00:38:46;99739.88;;;13.47;100.00
26719;BME280;14326;50.794;6.060;2022-09-12T00:41:16;99730.94;;;13.44;100.00
26719;BME280;14326;50.794;6.060;2022-09-12T00:43:44;99741.66;;;13.41;100.00
26719;BME280;14326;50.794;6.060;2022-09-12T00:46:21;99730.97;;;13.41;100.00
26719;BME280;14326;50.794;6.060;2022-09-12T00:48:53;99732.72;;;13.46;100.00
26719;BME280;14326;50.794;6.060;2022-09-12T00:51:22;99723.84;;;13.47;100.00
26719;BME280;14326;50.794;6.060;2022-09-12T00:53:50;99722.94;;;13.53;100.00
26719;BME280;14326;50.794;6.060;2022-09-12T00:56:19;99722.91;;;13.50;100.00
26719;BME280;14326;50.794;6.060;2022-09-12T00:58:51;99728.28;;;13.42;100.00
26719;BME280;14326;50.794;6.060;2022-09-12T01:01:22;99720.28;;;13.35;100.00
26719;BME280;14326;50.794;6.060;2022-09-12T01:03:49;99714.94;;;13.30;100.00
26719;BME280;14326;50.794;6.060;2022-09-12T01:06:20;99718.47;;;13.34;100.00
26719;BME280;14326;50.794;6.060;2022-09-12T01:08:48;99718.50;;;13.35;100.00
26719;BME280;14326;50.794;6.060;2022-09-12T01:11:17;99716.72;;;13.36;100.00
26719;BME280;14326;50.794;6.060;2022-09-12T01:13:45;99716.72;;;13.25;100.00
26719;BME280;14326;50.794;6.060;2022-09-12T01:16:12;99705.13;;;13.22;100.00
26719;BME280;14326;50.794;6.060;2022-09-12T01:18:52;99710.47;;;13.20;100.00
26719;BME280;14326;50.794;6.060;2022-09-12T01:21:32;99706.03;;;13.24;100.00
26719;BME280;14326;50.794;6.060;2022-09-12T01:24:32;99705.13;;;13.23;100.00
26719;BME280;14326;50.794;6.060;2022-09-12T01:27:27;99700.66;;;13.21;100.00
26719;BME280;14326;50.794;6.060;2022-09-12T01:30:25;99693.53;;;13.20;100.00
26719;BME280;14326;50.794;6.060;2022-09-12T01:33:05;99691.78;;;13.13;100.00
26719;BME280;14326;50.794;6.060;2022-09-12T01:35:40;99704.19;;;13.09;100.00
26719;BME280;14326;50.794;6.060;2022-09-12T01:38:16;99700.63;;;13.02;100.00
26719;BME280;14326;50.794;6.060;2022-09-12T01:40:56;99697.97;;;13.02;100.00
26719;BME280;14326;50.794;6.060;2022-09-12T01:43:30;99695.28;;;13.02;100.00
26719;BME280;14326;50.794;6.060;2022-09-12T01:46:05;99697.09;;;13.00;100.00
26719;BME280;14326;50.794;6.060;2022-09-12T01:48:37;99691.75;;;13.00;100.00
26719;BME280;14326;50.794;6.060;2022-09-12T01:51:08;99685.50;;;12.92;100.00
26719;BME280;14326;50.794;6.060;2022-09-12T01:53:38;99690.84;;;12.91;100.00
26719;BME280;14326;50.794;6.060;2022-09-12T01:56:10;99684.59;;;12.90;100.00
26719;BME280;14326;50.794;6.060;2022-09-12T01:58:41;99681.94;;;12.90;100.00
26719;BME280;14326;50.794;6.060;2022-09-12T02:01:14;99687.28;;;12.93;100.00
26719;BME280;14326;50.794;6.060;2022-09-12T02:03:46;99682.84;;;12.92;100.00
26719;BME280;14326;50.794;6.060;2022-09-12T02:06:18;99678.38;;;12.93;100.00
26719;BME280;14326;50.794;6.060;2022-09-12T02:08:49;99670.38;;;12.88;100.00
26719;BME280;14326;50.794;6.060;2022-09-12T02:11:17;99670.38;;;12.87;100.00
26719;BME280;14326;50.794;6.060;2022-09-12T02:13:49;99667.69;;;12.87;100.00
26719;BME280;14326;50.794;6.060;2022-09-12T02:16:21;99665.91;;;12.84;100.00
26719;BME280;14326;50.794;6.060;2022-09-12T02:18:52;99677.50;;;12.83;100.00
26719;BME280;14326;50.794;6.060;2022-09-12T02:21:22;99672.16;;;12.83;100.00
26719;BME280;14326;50.794;6.060;2022-09-12T02:23:54;99669.47;;;12.82;100.00
26719;BME280;14326;50.794;6.060;2022-09-12T02:26:24;99667.72;;;12.78;100.00
26719;BME280;14326;50.794;6.060;2022-09-12T02:28:54;99662.38;;;12.76;100.00
26719;BME280;14326;50.794;6.060;2022-09-12T02:31:24;99662.34;;;12.75;100.00
26719;BME280;14326;50.794;6.060;2022-09-12T02:34:04;99659.69;;;12.73;100.00
26719;BME280;14326;50.794;6.060;2022-09-12T02:36:40;99653.47;;;12.76;100.00
26719;BME280;14326;50.794;6.060;2022-09-12T02:39:12;99654.34;;;12.79;100.00
26719;BME280;14326;50.794;6.060;2022-09-12T02:41:38;99654.38;;;12.84;100.00
26719;BME280;14326;50.794;6.060;2022-09-12T02:44:05;99656.13;;;12.86;100.00
26719;BME280;14326;50.794;6.060;2022-09-12T02:46:38;99652.56;;;12.87;100.00
26719;BME280;14326;50.794;6.060;2022-09-12T02:49:06;99657.91;;;12.84;100.00
26719;BME280;14326;50.794;6.060;2022-09-12T02:51:33;99653.47;;;12.82;100.00
26719;BME280;14326;50.794;6.060;2022-09-12T02:54:00;99655.22;;;12.80;100.00
26719;BME280;14326;50.794;6.060;2022-09-12T02:56:29;99649.03;;;12.76;100.00
26719;BME280;14326;50.794;6.060;2022-09-12T02:58:59;99651.66;;;12.73;100.00
26719;BME280;14326;50.794;6.060;2022-09-12T03:01:39;99657.91;;;12.75;100.00
26719;BME280;14326;50.794;6.060;2022-09-12T03:04:25;99646.34;;;12.76;100.00
26719;BME280;14326;50.794;6.060;2022-09-12T03:07:09;99634.78;;;12.74;100.00
26719;BME280;14326;50.794;6.060;2022-09-12T03:09:42;99640.13;;;12.76;100.00
26719;BME280;14326;50.794;6.060;2022-09-12T03:12:22;99637.44;;;12.74;100.00
26719;BME280;14326;50.794;6.060;2022-09-12T03:15:00;99643.66;;;12.73;100.00
26719;BME280;14326;50.794;6.060;2022-09-12T03:17:45;99640.09;;;12.74;100.00
26719;BME280;14326;50.794;6.060;2022-09-12T03:20:27;99647.22;;;12.73;100.00
26719;BME280;14326;50.794;6.060;2022-09-12T03:23:02;99646.34;;;12.75;100.00
26719;BME280;14326;50.794;6.060;2022-09-12T03:25:32;99646.31;;;12.73;100.00
26719;BME280;14326;50.794;6.060;2022-09-12T03:28:00;99641.00;;;12.71;100.00
26719;BME280;14326;50.794;6.060;2022-09-12T03:30:36;99641.00;;;12.73;100.00
26719;BME280;14326;50.794;6.060;2022-09-12T03:33:04;99641.88;;;12.73;100.00
26719;BME280;14326;50.794;6.060;2022-09-12T03:35:31;99644.56;;;12.75;100.00
26719;BME280;14326;50.794;6.060;2022-09-12T03:37:58;99639.22;;;12.77;100.00
26719;BME280;14326;50.794;6.060;2022-09-12T03:40:24;99638.34;;;12.76;100.00
26719;BME280;14326;50.794;6.060;2022-09-12T03:42:51;99641.00;;;12.79;100.00
26719;BME280;14326;50.794;6.060;2022-09-12T03:45:18;99647.25;;;12.81;100.00
26719;BME280;14326;50.794;6.060;2022-09-12T03:47:44;99648.13;;;12.85;100.00
26719;BME280;14326;50.794;6.060;2022-09-12T03:50:12;99642.78;;;12.88;100.00
26719;BME280;14326;50.794;6.060;2022-09-12T03:52:39;99644.56;;;12.90;100.00
26719;BME280;14326;50.794;6.060;2022-09-12T03:55:06;99634.78;;;12.88;100.00
26719;BME280;14326;50.794;6.060;2022-09-12T03:57:33;99640.13;;;12.89;100.00
26719;BME280;14326;50.794;6.060;2022-09-12T03:59:59;99636.53;;;12.90;100.00
26719;BME280;14326;50.794;6.060;2022-09-12T04:02:27;99638.34;;;12.88;100.00
26719;BME280;14326;50.794;6.060;2022-09-12T04:04:54;99635.66;;;12.87;100.00
26719;BME280;14326;50.794;6.060;2022-09-12T04:07:22;99630.31;;;12.85;100.00
26719;BME280;14326;50.794;6.060;2022-09-12T04:09:48;99624.09;;;12.85;100.00
26719;BME280;14326;50.794;6.060;2022-09-12T04:12:15;99625.88;;;12.86;100.00
26719;BME280;14326;50.794;6.060;2022-09-12T04:14:41;99624.09;;;12.86;100.00
26719;BME280;14326;50.794;6.060;2022-09-12T04:17:08;99625.88;;;12.87;100.00
26719;BME280;14326;50.794;6.060;2022-09-12T04:19:35;99618.75;;;12.85;100.00
26719;BME280;14326;50.794;6.060;2022-09-12T04:22:03;99619.66;;;12.84;100.00
26719;BME280;14326;50.794;6.060;2022-09-12T04:24:31;99622.31;;;12.82;100.00
26719;BME280;14326;50.794;6.060;2022-09-12T04:26:58;99616.09;;;12.77;100.00
26719;BME280;14326;50.794;6.060;2022-09-12T04:29:24;99615.19;;;12.75;100.00
26719;BME280;14326;50.794;6.060;2022-09-12T04:31:52;99614.31;;;12.71;100.00
26719;BME280;14326;50.794;6.060;2022-09-12T04:34:18;99613.41;;;12.68;100.00
26719;BME280;14326;50.794;6.060;2022-09-12T04:36:45;99615.19;;;12.67;100.00
26719;BME280;14326;50.794;6.060;2022-09-12T04:39:11;99611.66;;;12.64;100.00
26719;BME280;14326;50.794;6.060;2022-09-12T04:41:39;99608.97;;;12.65;100.00
26719;BME280;14326;50.794;6.060;2022-09-12T04:44:09;99608.97;;;12.65;100.00
26719;BME280;14326;50.794;6.060;2022-09-12T04:46:38;99605.41;;;12.65;100.00
26719;BME280;14326;50.794;6.060;2022-09-12T04:49:06;99601.84;;;12.63;100.00
26719;BME280;14326;50.794;6.060;2022-09-12T04:51:34;99605.41;;;12.63;100.00
26719;BME280;14326;50.794;6.060;2022-09-12T04:54:03;99600.06;;;12.63;100.00
26719;BME280;14326;50.794;6.060;2022-09-12T04:56:31;99598.31;;;12.65;100.00
26719;BME280;14326;50.794;6.060;2022-09-12T04:59:00;99591.16;;;12.67;100.00
26719;BME280;14326;50.794;6.060;2022-09-12T05:01:27;99591.19;;;12.69;100.00
26719;BME280;14326;50.794;6.060;2022-09-12T05:03:56;99595.63;;;12.70;100.00
26719;BME280;14326;50.794;6.060;2022-09-12T05:06:25;99584.94;;;12.67;100.00
26719;BME280;14326;50.794;6.060;2022-09-12T05:08:53;99583.19;;;12.66;100.00
26719;BME280;14326;50.794;6.060;2022-09-12T05:11:22;99592.06;;;12.62;100.00
26719;BME280;14326;50.794;6.060;2022-09-12T05:13:49;99594.72;;;12.66;100.00
26719;BME280;14326;50.794;6.060;2022-09-12T05:16:18;99597.41;;;12.68;100.00
26719;BME280;14326;50.794;6.060;2022-09-12T05:18:45;99600.09;;;12.71;100.00
26719;BME280;14326;50.794;6.060;2022-09-12T05:21:14;99606.31;;;12.70;100.00
26719;BME280;14326;50.794;6.060;2022-09-12T05:23:41;99599.22;;;12.72;100.00
26719;BME280;14326;50.794;6.060;2022-09-12T05:26:11;99598.28;;;12.75;100.00
26719;BME280;14326;50.794;6.060;2022-09-12T05:28:38;99608.97;;;12.81;100.00
26719;BME280;14326;50.794;6.060;2022-09-12T05:31:08;99600.06;;;12.86;100.00
26719;BME280;14326;50.794;6.060;2022-09-12T05:33:39;99608.06;;;12.92;100.00
26719;BME280;14326;50.794;6.060;2022-09-12T05:36:09;99599.19;;;13.01;100.00
26719;BME280;14326;50.794;6.060;2022-09-12T05:38:36;99604.50;;;13.11;100.00
26719;BME280;14326;50.794;6.060;2022-09-12T05:41:04;99605.44;;;13.18;100.00
26719;BME280;14326;50.794;6.060;2022-09-12T05:43:31;99611.63;;;13.22;100.00
26719;BME280;14326;50.794;6.060;2022-09-12T05:46:03;99600.97;;;13.25;100.00
26719;BME280;14326;50.794;6.060;2022-09-12T05:48:29;99598.25;;;13.32;100.00
26719;BME280;14326;50.794;6.060;2022-09-12T05:51:00;99603.59;;;13.43;100.00
26719;BME280;14326;50.794;6.060;2022-09-12T05:53:28;99609.78;;;13.51;100.00
26719;BME280;14326;50.794;6.060;2022-09-12T05:56:06;99613.34;;;13.59;100.00
26719;BME280;14326;50.794;6.060;2022-09-12T05:58:34;99616.00;;;13.65;100.00
26719;BME280;14326;50.794;6.060;2022-09-12T06:01:03;99607.94;;;13.70;100.00
26719;BME280;14326;50.794;6.060;2022-09-12T06:03:31;99620.41;;;13.75;100.00
26719;BME280;14326;50.794;6.060;2022-09-12T06:06:02;99609.69;;;13.78;100.00
26719;BME280;14326;50.794;6.060;2022-09-12T06:08:30;99611.44;;;13.85;100.00
26719;BME280;14326;50.794;6.060;2022-09-12T06:10:58;99617.69;;;13.89;100.00
26719;BME280;14326;50.794;6.060;2022-09-12T06:13:25;99620.34;;;13.93;100.00
26719;BME280;14326;50.794;6.060;2022-09-12T06:15:51;99626.56;;;14.02;100.00
26719;BME280;14326;50.794;6.060;2022-09-12T06:18:19;99630.94;;;14.09;100.00
26719;BME280;14326;50.794;6.060;2022-09-12T06:20:46;99629.13;;;14.17;100.00
26719;BME280;14326;50.794;6.060;2022-09-12T06:23:14;99625.50;;;14.27;100.00
26719;BME280;14326;50.794;6.060;2022-09-12T06:25:50;99624.59;;;14.34;100.00
26719;BME280;14326;50.794;6.060;2022-09-12T06:28:16;99614.72;;;14.48;100.00
26719;BME280;14326;50.794;6.060;2022-09-12T06:30:44;99611.94;;;14.62;100.00
26719;BME280;14326;50.794;6.060;2022-09-12T06:33:10;99607.31;;;14.79;100.00
26719;BME280;14326;50.794;6.060;2022-09-12T06:35:37;99607.28;;;14.90;100.00
26719;BME280;14326;50.794;6.060;2022-09-12T06:38:04;99616.03;;;15.07;100.00
26719;BME280;14326;50.794;6.060;2022-09-12T06:40:32;99600.66;;;15.27;100.00
26719;BME280;14326;50.794;6.060;2022-09-12T06:42:59;99602.78;;;15.79;100.00
26719;BME280;14326;50.794;6.060;2022-09-12T06:45:26;99614.00;;;16.10;99.89
26719;BME280;14326;50.794;6.060;2022-09-12T06:47:53;99611.25;;;16.16;97.05
26719;BME280;14326;50.794;6.060;2022-09-12T06:50:20;99610.19;;;16.29;98.66
26719;BME280;14326;50.794;6.060;2022-09-12T06:52:48;99617.97;;;16.47;95.80
26719;BME280;14326;50.794;6.060;2022-09-12T06:55:15;99617.47;;;16.82;96.30
26719;BME280;14326;50.794;6.060;2022-09-12T06:57:43;99610.69;;;17.59;90.77
26719;BME280;14326;50.794;6.060;2022-09-12T07:00:10;99613.97;;;18.61;88.66
26719;BME280;14326;50.794;6.060;2022-09-12T07:02:37;99613.75;;;19.06;82.80
26719;BME280;14326;50.794;6.060;2022-09-12T07:05:04;99617.97;;;19.16;82.14
26719;BME280;14326;50.794;6.060;2022-09-12T07:07:33;99620.53;;;19.22;84.29
26719;BME280;14326;50.794;6.060;2022-09-12T07:10:00;99613.97;;;19.66;83.89
26719;BME280;14326;50.794;6.060;2022-09-12T07:12:28;99616.81;;;19.92;81.32
26719;BME280;14326;50.794;6.060;2022-09-12T07:14:56;99614.50;;;20.40;79.77
26719;BME280;14326;50.794;6.060;2022-09-12T07:17:22;99633.75;;;20.59;79.78
26719;BME280;14326;50.794;6.060;2022-09-12T07:19:49;99629.78;;;20.71;78.13
26719;BME280;14326;50.794;6.060;2022-09-12T07:22:16;99624.22;;;20.75;78.12
26719;BME280;14326;50.794;6.060;2022-09-12T07:24:43;99627.81;;;20.76;77.46
26719;BME280;14326;50.794;6.060;2022-09-12T07:27:10;99626.13;;;20.72;76.96
26719;BME280;14326;50.794;6.060;2022-09-12T07:29:37;99622.00;;;20.60;81.42
26719;BME280;14326;50.794;6.060;2022-09-12T07:32:05;99609.41;;;20.87;80.50
26719;BME280;14326;50.794;6.060;2022-09-12T07:34:33;99616.03;;;21.05;78.63
26719;BME280;14326;50.794;6.060;2022-09-12T07:36:59;99608.50;;;21.14;77.30
26719;BME280;14326;50.794;6.060;2022-09-12T07:39:26;99610.00;;;21.24;80.25
26719;BME280;14326;50.794;6.060;2022-09-12T07:41:53;99619.59;;;21.33;75.46
26719;BME280;14326;50.794;6.060;2022-09-12T07:44:20;99607.31;;;20.97;74.11
26719;BME280;14326;50.794;6.060;2022-09-12T07:46:47;99612.44;;;20.78;73.90
26719;BME280;14326;50.794;6.060;2022-09-12T07:49:16;99616.63;;;20.29;78.93
26719;BME280;14326;50.794;6.060;2022-09-12T07:51:43;99613.47;;;19.84;82.63
26719;BME280;14326;50.794;6.060;2022-09-12T07:54:10;99602.59;;;19.55;86.03
26719;BME280;14326;50.794;6.060;2022-09-12T07:56:36;99604.56;;;19.48;87.84
26719;BME280;14326;50.794;6.060;2022-09-12T07:59:03;99604.16;;;19.30;89.56
26719;BME280;14326;50.794;6.060;2022-09-12T08:01:30;99599.81;;;19.24;90.94
26719;BME280;14326;50.794;6.060;2022-09-12T08:03:58;99603.09;;;19.69;89.96
26719;BME280;14326;50.794;6.060;2022-09-12T08:06:28;99613.06;;;20.58;85.39
26719;BME280;14326;50.794;6.060;2022-09-12T08:08:57;99601.38;;;21.12;81.02
26719;BME280;14326;50.794;6.060;2022-09-12T08:11:26;99594.44;;;21.81;76.66
26719;BME280;14326;50.794;6.060;2022-09-12T08:13:55;99604.66;;;22.67;72.24
26719;BME280;14326;50.794;6.060;2022-09-12T08:16:23;99605.94;;;23.24;71.39
26719;BME280;14326;50.794;6.060;2022-09-12T08:18:50;99604.16;;;23.23;64.51
26719;BME280;14326;50.794;6.060;2022-09-12T08:21:18;99605.13;;;23.64;64.43
26719;BME280;14326;50.794;6.060;2022-09-12T08:23:46;99601.94;;;23.54;62.27
26719;BME280;14326;50.794;6.060;2022-09-12T08:26:13;99604.38;;;23.60;62.59
26719;BME280;14326;50.794;6.060;2022-09-12T08:28:43;99602.44;;;24.23;60.84
26719;BME280;14326;50.794;6.060;2022-09-12T08:31:11;99600.31;;;24.67;58.83
26719;BME280;14326;50.794;6.060;2022-09-12T08:33:39;99592.53;;;24.97;56.17
26719;BME280;14326;50.794;6.060;2022-09-12T08:36:09;99600.28;;;24.86;56.62
26719;BME280;14326;50.794;6.060;2022-09-12T08:38:37;99597.66;;;25.03;57.63
26719;BME280;14326;50.794;6.060;2022-09-12T08:41:12;99601.09;;;25.07;54.68
26719;BME280;14326;50.794;6.060;2022-09-12T08:43:50;99593.97;;;24.85;56.34
26719;BME280;14326;50.794;6.060;2022-09-12T08:46:23;99598.69;;;24.63;56.15
26719;BME280;14326;50.794;6.060;2022-09-12T08:48:56;99605.97;;;24.63;55.05
26719;BME280;14326;50.794;6.060;2022-09-12T08:51:25;99601.09;;;24.69;54.32
26719;BME280;14326;50.794;6.060;2022-09-12T08:53:54;99587.94;;;24.98;54.99
26719;BME280;14326;50.794;6.060;2022-09-12T08:56:24;99593.59;;;24.74;55.77
26719;BME280;14326;50.794;6.060;2022-09-12T08:58:51;99581.69;;;24.77;55.94
26719;BME280;14326;50.794;6.060;2022-09-12T09:01:27;99590.75;;;24.59;54.87
26719;BME280;14326;50.794;6.060;2022-09-12T09:04:11;99594.00;;;24.67;56.70
26719;BME280;14326;50.794;6.060;2022-09-12T09:06:54;99593.75;;;24.34;56.92
26719;BME280;14326;50.794;6.060;2022-09-12T09:09:29;99595.19;;;24.42;55.57
26719;BME280;14326;50.794;6.060;2022-09-12T09:12:06;99590.41;;;24.47;55.95
26719;BME280;14326;50.794;6.060;2022-09-12T09:14:55;99596.63;;;24.68;55.90
26719;BME280;14326;50.794;6.060;2022-09-12T09:17:26;99587.78;;;24.82;53.48
26719;BME280;14326;50.794;6.060;2022-09-12T09:20:01;99586.66;;;24.86;54.80
26719;BME280;14326;50.794;6.060;2022-09-12T09:22:39;99578.09;;;24.76;52.72
26719;BME280;14326;50.794;6.060;2022-09-12T09:25:14;99583.22;;;24.82;54.08
26719;BME280;14326;50.794;6.060;2022-09-12T09:27:46;99582.91;;;24.90;53.22
26719;BME280;14326;50.794;6.060;2022-09-12T09:30:15;99577.22;;;24.95;54.19
26719;BME280;14326;50.794;6.060;2022-09-12T09:32:43;99567.84;;;25.00;54.58
26719;BME280;14326;50.794;6.060;2022-09-12T09:35:15;99572.41;;;25.00;53.05
26719;BME280;14326;50.794;6.060;2022-09-12T09:37:44;99574.31;;;24.98;53.81
26719;BME280;14326;50.794;6.060;2022-09-12T09:40:20;99571.94;;;24.73;54.47
26719;BME280;14326;50.794;6.060;2022-09-12T09:42:57;99573.53;;;24.77;53.31
26719;BME280;14326;50.794;6.060;2022-09-12T09:45:28;99570.00;;;24.75;54.33
26719;BME280;14326;50.794;6.060;2022-09-12T09:47:57;99564.63;;;24.92;54.83
26719;BME280;14326;50.794;6.060;2022-09-12T09:50:26;99571.22;;;25.05;53.41
26719;BME280;14326;50.794;6.060;2022-09-12T09:52:54;99560.41;;;25.04;53.65
26719;BME280;14326;50.794;6.060;2022-09-12T09:55:24;99564.91;;;25.05;53.67
26719;BME280;14326;50.794;6.060;2022-09-12T09:57:53;99552.09;;;25.07;53.87
26719;BME280;14326;50.794;6.060;2022-09-12T10:00:22;99549.94;;;25.13;54.21
26719;BME280;14326;50.794;6.060;2022-09-12T10:03:02;99560.66;;;25.16;53.41
26719;BME280;14326;50.794;6.060;2022-09-12T10:05:32;99553.88;;;25.08;52.48
26719;BME280;14326;50.794;6.060;2022-09-12T10:07:59;99551.75;;;24.77;52.66
26719;BME280;14326;50.794;6.060;2022-09-12T10:10:26;99553.09;;;24.68;55.11
26719;BME280;14326;50.794;6.060;2022-09-12T10:13:06;99552.31;;;24.29;55.11
26719;BME280;14326;50.794;6.060;2022-09-12T10:15:35;99541.50;;;24.46;55.35
26719;BME280;14326;50.794;6.060;2022-09-12T10:18:02;99537.50;;;24.72;53.61
26719;BME280;14326;50.794;6.060;2022-09-12T10:20:31;99534.97;;;24.86;51.65
26719;BME280;14326;50.794;6.060;2022-09-12T10:22:59;99529.41;;;24.89;52.24
26719;BME280;14326;50.794;6.060;2022-09-12T10:25:27;99528.22;;;25.12;50.48
26719;BME280;14326;50.794;6.060;2022-09-12T10:27:58;99519.19;;;25.28;50.35
26719;BME280;14326;50.794;6.060;2022-09-12T10:30:26;99530.06;;;25.46;50.38
26719;BME280;14326;50.794;6.060;2022-09-12T10:32:58;99529.03;;;25.48;51.24
26719;BME280;14326;50.794;6.060;2022-09-12T10:35:41;99524.63;;;24.94;49.67
26719;BME280;14326;50.794;6.060;2022-09-12T10:38:20;99521.44;;;25.03;54.22
26719;BME280;14326;50.794;6.060;2022-09-12T10:40:55;99517.97;;;25.00;52.19
26719;BME280;14326;50.794;6.060;2022-09-12T10:43:28;99516.00;;;25.03;50.38
26719;BME280;14326;50.794;6.060;2022-09-12T10:45:56;99511.13;;;25.27;50.94
26719;BME280;14326;50.794;6.060;2022-09-12T10:48:27;99517.25;;;25.48;49.85
26719;BME280;14326;50.794;6.060;2022-09-12T10:50:54;99505.41;;;25.66;49.27
26719;BME280;14326;50.794;6.060;2022-09-12T10:53:23;99501.72;;;25.67;49.03
26719;BME280;14326;50.794;6.060;2022-09-12T10:56:06;99505.66;;;26.10;48.10
26719;BME280;14326;50.794;6.060;2022-09-12T10:58:54;99497.94;;;26.18;47.31
26719;BME280;14326;50.794;6.060;2022-09-12T11:01:34;99500.41;;;26.23;47.19
26719;BME280;14326;50.794;6.060;2022-09-12T11:04:25;99490.25;;;26.26;47.09
26719;BME280;14326;50.794;6.060;2022-09-12T11:07:05;99489.31;;;26.10;46.25
26719;BME280;14326;50.794;6.060;2022-09-12T11:09:38;99488.59;;;26.06;45.67
26719;BME280;14326;50.794;6.060;2022-09-12T11:12:14;99483.69;;;26.13;47.78
26719;BME280;14326;50.794;6.060;2022-09-12T11:14:55;99482.63;;;26.16;44.73
26719;BME280;14326;50.794;6.060;2022-09-12T11:17:35;99478.44;;;26.41;45.04
26719;BME280;14326;50.794;6.060;2022-09-12T11:20:42;99465.22;;;26.65;45.07
26719;BME280;14326;50.794;6.060;2022-09-12T11:26:33;99463.47;;;26.64;44.79
26719;BME280;14326;50.794;6.060;2022-09-12T11:29:12;99458.75;;;26.82;42.79
26719;BME280;14326;50.794;6.060;2022-09-12T11:32:06;99455.03;;;26.53;43.52
26719;BME280;14326;50.794;6.060;2022-09-12T11:34:46;99460.69;;;26.50;44.18
26719;BME280;14326;50.794;6.060;2022-09-12T11:37:32;99451.84;;;26.45;42.43
26719;BME280;14326;50.794;6.060;2022-09-12T11:40:15;99447.28;;;26.61;42.33
26719;BME280;14326;50.794;6.060;2022-09-12T11:42:48;99450.00;;;26.61;40.61
26719;BME280;14326;50.794;6.060;2022-09-12T11:45:21;99438.38;;;26.73;40.51
26719;BME280;14326;50.794;6.060;2022-09-12T11:47:54;99449.88;;;26.78;41.80
26719;BME280;14326;50.794;6.060;2022-09-12T11:50:27;99443.75;;;26.59;40.88
26719;BME280;14326;50.794;6.060;2022-09-12T11:52:57;99434.88;;;26.56;41.67
26719;BME280;14326;50.794;6.060;2022-09-12T11:55:28;99437.22;;;26.77;42.27
26719;BME280;14326;50.794;6.060;2022-09-12T11:57:58;99429.84;;;26.64;42.68
26719;BME280;14326;50.794;6.060;2022-09-12T12:00:27;99432.53;;;26.79;43.47
26719;BME280;14326;50.794;6.060;2022-09-12T12:03:04;99429.63;;;26.82;41.45
26719;BME280;14326;50.794;6.060;2022-09-12T12:05:38;99427.56;;;27.02;41.61
26719;BME280;14326;50.794;6.060;2022-09-12T12:08:06;99429.34;;;27.03;41.70
26719;BME280;14326;50.794;6.060;2022-09-12T12:10:37;99423.88;;;27.17;42.21
26719;BME280;14326;50.794;6.060;2022-09-12T12:13:07;99421.78;;;27.36;40.86
26719;BME280;14326;50.794;6.060;2022-09-12T12:15:35;99416.09;;;27.25;39.88
26719;BME280;14326;50.794;6.060;2022-09-12T12:18:06;99418.41;;;26.87;39.23
26719;BME280;14326;50.794;6.060;2022-09-12T12:20:34;99416.22;;;26.94;40.99
26719;BME280;14326;50.794;6.060;2022-09-12T12:23:01;99419.16;;;26.91;39.31
26719;BME280;14326;50.794;6.060;2022-09-12T12:25:39;99418.88;;;26.95;39.17
26719;BME280;14326;50.794;6.060;2022-09-12T12:28:07;99411.59;;;27.24;39.90
26719;BME280;14326;50.794;6.060;2022-09-12T12:30:58;99414.16;;;27.27;39.28
26719;BME280;14326;50.794;6.060;2022-09-12T12:33:52;99412.44;;;26.96;39.15
26719;BME280;14326;50.794;6.060;2022-09-12T12:36:34;99417.84;;;27.12;38.02
26719;BME280;14326;50.794;6.060;2022-09-12T12:46:01;99417.47;;;27.46;39.95
26719;BME280;14326;50.794;6.060;2022-09-12T12:48:54;99409.81;;;27.53;38.95
26719;BME280;14326;50.794;6.060;2022-09-12T12:51:32;99399.91;;;27.36;39.07
26719;BME280;14326;50.794;6.060;2022-09-12T12:54:02;99399.56;;;27.56;38.76
26719;BME280;14326;50.794;6.060;2022-09-12T12:56:34;99396.41;;;27.77;37.66
26719;BME280;14326;50.794;6.060;2022-09-12T12:59:12;99390.78;;;27.80;37.22
26719;BME280;14326;50.794;6.060;2022-09-12T13:01:44;99392.13;;;27.73;37.79
26719;BME280;14326;50.794;6.060;2022-09-12T13:04:15;99399.56;;;27.56;39.47
26719;BME280;14326;50.794;6.060;2022-09-12T13:06:45;99396.50;;;27.47;40.56
26719;BME280;14326;50.794;6.060;2022-09-12T13:09:23;99387.41;;;27.46;39.02
26719;BME280;14326;50.794;6.060;2022-09-12T13:11:59;99390.94;;;27.48;39.34
26719;BME280;14326;50.794;6.060;2022-09-12T13:14:35;99382.47;;;27.67;39.86
26719;BME280;14326;50.794;6.060;2022-09-12T13:17:04;99383.53;;;27.79;38.44
26719;BME280;14326;50.794;6.060;2022-09-12T13:19:35;99378.34;;;27.88;38.91
26719;BME280;14326;50.794;6.060;2022-09-12T13:22:04;99376.72;;;28.13;37.25
26719;BME280;14326;50.794;6.060;2022-09-12T13:24:32;99381.16;;;28.15;36.54
26719;BME280;14326;50.794;6.060;2022-09-12T13:26:58;99381.31;;;28.12;37.91